Time;durP1;ratioP1;P1;durP2;ratioP2;P2;SDS_P1;SDS_P2;PMS_P1;PMS_P2;Temp;Humidity;BMP_temperature;BMP_pressure;BME280_temperature;BME280_humidity;BME280_pressure;Samples;Min_cycle;Max_cycle;Signal;HPM_P1;HPM_P2
2022/02/09 00:03:56;;;;;;;5.32;1.05;;;;;;;8.63;87.17;102716.69;5092367;28;20540;-82
2022/02/09 00:09:13;;;;;;;4.63;0.98;;;;;;;8.59;87.23;102710.59;5066699;28;20043;-82
2022/02/09 00:19:36;;;;;;;5.22;1.60;;;;;;;8.61;87.14;102694.94;5083019;28;20039;-82
2022/02/09 00:25:17;;;;;;;5.15;1.85;;;;;;;8.60;87.34;102698.41;5076039;28;20063;-82
2022/02/09 01:56:08;;;;;;;5.40;2.45;;;;;;;8.59;88.89;102681.00;5096557;28;20100;-82
2022/02/09 01:58:33;;;;;;;7.13;2.22;;;;;;;8.57;88.91;102670.56;5080041;28;20359;-82
2022/02/09 02:00:59;;;;;;;4.68;2.47;;;;;;;8.57;89.10;102677.53;5065616;28;20048;-83
2022/02/09 02:03:24;;;;;;;5.05;2.90;;;;;;;8.58;89.17;102674.03;5094904;28;20085;-82
2022/02/09 02:05:50;;;;;;;3.05;2.53;;;;;;;8.58;88.98;102671.44;5060277;28;20052;-82
2022/02/09 02:08:15;;;;;;;5.47;2.75;;;;;;;8.58;89.13;102660.97;5081531;28;20372;-83
2022/02/09 02:10:52;;;;;;;5.32;3.05;;;;;;;8.59;89.16;102654.91;5084473;28;20093;-83
2022/02/09 02:19:01;;;;;;;4.25;3.28;;;;;;;8.57;89.34;102649.66;5097582;28;20063;-81
2022/02/09 02:21:39;;;;;;;10.55;4.43;;;;;;;8.58;89.24;102660.97;5065518;28;20232;-81
2022/02/09 02:24:27;;;;;;;4.82;4.18;;;;;;;8.56;89.30;102653.16;5098231;28;20354;-82
2022/02/09 02:27:21;;;;;;;3.95;3.40;;;;;;;8.57;89.45;102661.88;5068489;28;20324;-81
2022/02/09 03:12:30;;;;;;;4.78;3.92;;;;;;;8.57;90.07;102599.19;5059538;28;20032;-82
2022/02/09 03:15:15;;;;;;;4.00;3.70;;;;;;;8.56;90.11;102620.94;5073408;28;20379;-82
2022/02/09 03:17:44;;;;;;;3.88;3.58;;;;;;;8.56;90.26;102615.72;5079760;28;20032;-81
2022/02/09 03:22:53;;;;;;;4.95;3.45;;;;;;;8.54;90.15;102613.13;5079960;28;20516;-82
2022/02/09 03:31:05;;;;;;;4.07;3.35;;;;;;;8.56;90.10;102618.34;5077973;28;20280;-82
2022/02/09 03:47:49;;;;;;;4.78;3.72;;;;;;;8.53;90.78;102613.13;5093974;28;20423;-81
2022/02/09 03:55:09;;;;;;;5.05;4.07;;;;;;;8.52;90.87;102599.19;5091723;28;20040;-82
2022/02/09 03:57:45;;;;;;;;;;;;;;;8.52;90.85;102593.97;5065404;28;20378;-80
2022/02/09 04:00:15;;;;;;;3.47;3.22;;;;;;;8.51;90.80;102589.63;5084162;28;19920;-82
2022/02/09 04:02:48;;;;;;;3.55;3.25;;;;;;;8.51;90.89;102584.38;5092414;28;20048;-82
2022/02/09 04:05:17;;;;;;;4.55;4.15;;;;;;;8.48;90.89;102601.81;5077332;28;20326;-82
2022/02/09 04:07:42;;;;;;;4.07;3.78;;;;;;;8.48;90.86;102586.16;5096703;28;20044;-82
2022/02/09 04:10:12;;;;;;;4.22;3.85;;;;;;;8.48;90.81;102589.66;5061765;28;20039;-82
2022/02/09 04:12:51;;;;;;;4.32;3.92;;;;;;;8.47;90.70;102585.28;5063160;28;20062;-81
2022/02/09 04:15:31;;;;;;;3.55;3.35;;;;;;;8.50;90.64;102587.03;5077574;28;20469;-82
2022/02/09 04:18:19;;;;;;;4.47;4.00;;;;;;;8.47;90.84;102582.69;5058643;28;20036;-82
2022/02/09 04:39:54;;;;;;;4.88;3.78;;;;;;;8.43;90.48;102588.78;5086977;28;20231;-82
2022/02/09 04:48:13;;;;;;;5.25;4.85;;;;;;;8.43;90.77;102575.75;5091919;28;20490;-82
2022/02/09 04:51:12;;;;;;;5.90;4.57;;;;;;;8.42;90.75;102571.38;5093569;28;20043;-82
2022/02/09 04:54:23;;;;;;;4.95;4.10;;;;;;;8.43;90.58;102573.13;5088735;28;20316;-82
2022/02/09 04:59:05;;;;;;;4.80;4.40;;;;;;;8.41;90.70;102562.66;5092720;28;20028;-82
2022/02/09 05:02:12;;;;;;;5.22;4.80;;;;;;;8.40;90.91;102560.94;5062955;28;20247;-82
2022/02/09 05:18:25;;;;;;;7.82;4.32;;;;;;;8.36;91.30;102561.78;5021431;28;20278;-82
2022/02/09 05:26:19;;;;;;;4.47;4.07;;;;;;;8.33;91.54;102576.59;5074863;28;20040;-82
2022/02/09 05:28:45;;;;;;;5.40;4.50;;;;;;;8.31;91.70;102565.31;5075655;28;20032;-82
2022/02/09 05:31:10;;;;;;;4.93;4.45;;;;;;;8.32;91.79;102567.06;5094320;28;20051;-82
2022/02/09 05:33:37;;;;;;;4.15;3.78;;;;;;;8.34;91.73;102567.91;5071935;28;20047;-82
2022/02/09 05:36:03;;;;;;;5.00;4.45;;;;;;;8.33;91.56;102564.44;5075249;28;20315;-82
2022/02/09 05:38:28;;;;;;;5.72;4.38;;;;;;;8.31;91.65;102562.69;5084085;28;20040;-82
2022/02/09 05:40:54;;;;;;;6.93;4.72;;;;;;;8.32;91.32;102570.53;5079413;28;20213;-82
2022/02/09 05:43:22;;;;;;;5.70;4.18;;;;;;;8.31;91.51;102570.53;5098190;28;20043;-82
2022/02/09 05:56:41;;;;;;;4.63;4.30;;;;;;;8.31;91.23;102567.91;5082516;28;20267;-82
2022/02/09 06:01:36;;;;;;;4.93;4.43;;;;;;;8.31;91.16;102575.75;5097775;28;20040;-82
2022/02/09 06:04:01;;;;;;;6.38;5.00;;;;;;;8.32;91.22;102569.66;5080600;28;20209;-82
2022/02/09 06:06:27;;;;;;;4.85;4.47;;;;;;;8.29;91.09;102570.53;5063979;28;20146;-82
2022/02/09 06:08:52;;;;;;;4.50;4.10;;;;;;;8.30;91.15;102560.97;5080542;28;20385;-82
2022/02/09 06:14:38;;;;;;;8.25;5.43;;;;;;;8.29;91.18;102565.31;5083552;28;20051;-83
2022/02/09 06:19:53;;;;;;;4.97;4.57;;;;;;;8.28;91.53;102566.19;5096396;28;20043;-82
2022/02/09 06:22:20;;;;;;;6.63;5.40;;;;;;;8.26;91.71;102560.97;5098623;28;20078;-82
2022/02/09 06:24:45;;;;;;;4.68;4.25;;;;;;;8.27;91.56;102546.16;5096175;28;20043;-82
2022/02/09 06:27:12;;;;;;;6.25;5.65;;;;;;;8.25;91.75;102564.44;5076832;28;20119;-82
2022/02/09 06:29:43;;;;;;;5.70;4.95;;;;;;;8.25;91.95;102571.41;5061413;28;20040;-82
2022/02/09 06:32:09;;;;;;;7.32;5.25;;;;;;;8.23;91.96;102566.19;5084398;28;20135;-82
2022/02/09 06:34:36;;;;;;;6.53;5.93;;;;;;;8.22;92.00;102568.81;5091548;28;20040;-82
2022/02/09 06:37:11;;;;;;;6.35;5.75;;;;;;;8.22;92.18;102569.69;5060917;28;20070;-82
2022/02/09 06:39:37;;;;;;;7.38;5.32;;;;;;;8.23;91.97;102571.41;5086798;28;20038;-82
2022/02/09 06:42:03;;;;;;;5.95;5.28;;;;;;;8.23;92.38;102568.81;5084033;28;20324;-82
2022/02/09 06:44:31;;;;;;;5.80;5.40;;;;;;;8.22;92.34;102564.47;5060214;28;20103;-82
2022/02/09 06:46:56;;;;;;;6.40;5.78;;;;;;;8.21;92.61;102564.47;5077206;28;20040;-83
2022/02/09 06:49:22;;;;;;;6.55;5.47;;;;;;;8.22;92.40;102554.03;5078105;28;20051;-82
2022/02/09 06:51:48;;;;;;;7.00;6.20;;;;;;;8.20;92.73;102557.50;5096575;28;20105;-82
2022/02/09 06:54:42;;;;;;;7.25;5.82;;;;;;;8.22;92.49;102559.25;5065400;28;20028;-82
2022/02/09 06:57:11;;;;;;;5.93;5.50;;;;;;;8.24;92.72;102561.84;5079131;28;20048;-82
2022/02/09 06:59:41;;;;;;;6.10;5.60;;;;;;;8.23;92.53;102554.91;5073989;28;20047;-82
2022/02/09 07:02:07;;;;;;;6.53;5.97;;;;;;;8.24;92.70;102552.28;5062196;28;20374;-82
2022/02/09 07:04:35;;;;;;;7.70;5.93;;;;;;;8.24;92.40;102557.50;5078001;28;20048;-83
2022/02/09 07:07:03;;;;;;;5.45;5.05;;;;;;;8.22;92.36;102551.44;5088462;28;20388;-82
2022/02/09 07:09:28;;;;;;;7.55;5.30;;;;;;;8.23;92.49;102547.91;5073462;28;20036;-82
2022/02/09 07:11:55;;;;;;;6.47;5.88;;;;;;;8.21;92.67;102534.00;5091860;28;20248;-82
2022/02/09 07:14:26;;;;;;;5.95;5.40;;;;;;;8.21;92.62;102536.63;5094644;28;20040;-82
2022/02/09 07:16:53;;;;;;;6.00;5.50;;;;;;;8.22;92.39;102555.75;5094424;28;20046;-82
2022/02/09 07:19:19;;;;;;;14.77;6.25;;;;;;;8.21;92.28;102547.06;5054900;28;20105;-82
2022/02/09 07:21:46;;;;;;;6.85;6.25;;;;;;;8.21;92.33;102544.47;5085213;28;20075;-82
2022/02/09 07:24:14;;;;;;;8.35;6.90;;;;;;;8.19;92.34;102548.81;5093551;28;20275;-83
2022/02/09 07:29:06;;;;;;;7.20;6.47;;;;;;;8.20;92.44;102539.22;5110796;28;20023;-83
2022/02/09 07:31:31;;;;;;;7.85;7.18;;;;;;;8.20;92.47;102544.47;5079550;28;20064;-82
2022/02/09 07:33:57;;;;;;;7.43;6.72;;;;;;;8.19;92.43;102553.19;5068654;28;20110;-83
2022/02/09 07:36:24;;;;;;;7.13;6.43;;;;;;;8.19;92.40;102545.34;5090972;28;20043;-83
2022/02/09 07:38:49;;;;;;;6.93;6.30;;;;;;;8.20;92.36;102558.38;5088663;28;20393;-83
2022/02/09 07:41:15;;;;;;;7.55;6.82;;;;;;;8.18;92.20;102552.28;5083474;28;20032;-82
2022/02/09 07:43:58;;;;;;;8.18;7.38;;;;;;;8.18;92.11;102557.50;5097245;28;20085;-82
2022/02/09 07:49:24;;;;;;;10.07;6.88;;;;;;;8.20;92.26;102550.53;5087840;28;20407;-83
2022/02/09 07:54:17;;;;;;;6.78;6.05;;;;;;;8.17;92.08;102561.00;5091145;28;20052;-83
2022/02/09 07:56:43;;;;;;;6.68;6.18;;;;;;;8.16;92.28;102561.00;5071599;28;20354;-83
2022/02/09 07:59:11;;;;;;;6.25;5.75;;;;;;;8.16;92.11;102561.88;5096511;28;20228;-83
2022/02/09 08:01:38;;;;;;;6.47;5.97;;;;;;;8.18;92.21;102557.50;5097359;28;20024;-82
2022/02/09 08:04:05;;;;;;;6.18;5.68;;;;;;;8.17;92.36;102555.78;5089500;28;20034;-83
2022/02/09 08:06:31;;;;;;;6.18;5.63;;;;;;;8.17;92.09;102555.78;5101755;28;20349;-83
2022/02/09 08:09:01;;;;;;;11.93;6.38;;;;;;;8.20;92.08;102552.28;5086892;28;20350;-82
2022/02/09 08:11:46;;;;;;;6.03;5.60;;;;;;;8.21;91.91;102551.44;5078834;28;20205;-82
2022/02/09 08:27:55;;;;;;;7.78;5.82;;;;;;;8.17;91.67;102555.78;5093917;28;20099;-83
2022/02/09 08:30:42;;;;;;;9.88;5.40;;;;;;;8.17;91.78;102547.09;5054100;28;20036;-83
2022/02/09 08:33:17;;;;;;;5.57;5.18;;;;;;;8.20;91.53;102555.75;5075891;28;20040;-83
2022/02/09 08:35:47;;;;;;;7.75;6.15;;;;;;;8.19;91.61;102547.97;5088198;28;20260;-83
2022/02/09 08:38:13;;;;;;;7.18;6.47;;;;;;;8.18;91.60;102557.50;5070081;28;20546;-83
2022/02/09 08:40:38;;;;;;;8.70;6.80;;;;;;;8.17;91.75;102552.31;5089403;28;20103;-82
2022/02/09 08:43:05;;;;;;;8.05;7.13;;;;;;;8.19;91.74;102563.63;5080183;28;20064;-83
2022/02/09 08:45:30;;;;;;;7.35;6.32;;;;;;;8.20;91.77;102554.91;5073867;28;20032;-83
2022/02/09 08:47:59;;;;;;;8.25;6.53;;;;;;;8.19;91.67;102559.25;5072989;28;20039;-83
2022/02/09 08:50:24;;;;;;;6.22;5.70;;;;;;;8.21;91.60;102547.06;5093735;28;20460;-83
2022/02/09 08:52:52;;;;;;;7.68;6.97;;;;;;;8.21;91.85;102554.91;5097188;28;20032;-83
2022/02/09 08:55:18;;;;;;;9.32;6.45;;;;;;;8.24;91.69;102552.28;5094351;28;20066;-82
2022/02/09 08:57:43;;;;;;;7.60;6.28;;;;;;;8.24;91.53;102554.00;5095050;28;20280;-83
2022/02/09 09:00:18;;;;;;;10.93;7.78;;;;;;;8.26;91.60;102554.91;5093765;28;20085;-83
2022/02/09 09:02:47;;;;;;;8.73;7.55;;;;;;;8.24;91.80;102560.13;5089538;28;20047;-83
2022/02/09 09:05:24;;;;;;;8.95;7.65;;;;;;;8.25;91.81;102559.22;5093871;28;20340;-83
2022/02/09 09:07:55;;;;;;;8.10;7.32;;;;;;;8.25;91.78;102553.16;5072150;28;20040;-83
2022/02/09 09:10:36;;;;;;;8.55;7.75;;;;;;;8.25;91.63;102546.16;5099310;28;20342;-82
2022/02/09 09:17:05;;;;;;;13.32;7.65;;;;;;;8.25;91.75;102548.78;5095892;28;20150;-83
2022/02/09 09:25:03;;;;;;;9.70;7.75;;;;;;;8.30;91.53;102550.53;5076034;28;20044;-82
2022/02/09 10:02:42;;;;;;;9.40;8.00;;;;;;;8.48;90.33;102568.75;5059168;28;20323;-83
2022/02/09 10:33:00;;;;;;;12.38;9.13;;;;;;;8.57;90.15;102587.00;5096934;28;20050;-82
2022/02/09 10:35:31;;;;;;;14.20;8.82;;;;;;;8.57;90.28;102579.16;5074593;28;20039;-82
2022/02/09 10:38:00;;;;;;;17.85;9.25;;;;;;;8.59;90.54;102592.22;5096566;28;20062;-82
2022/02/09 10:40:41;;;;;;;9.98;8.90;;;;;;;8.63;90.26;102584.34;5094667;28;20028;-83
2022/02/09 10:43:27;;;;;;;16.95;9.35;;;;;;;8.63;90.47;102586.97;5072225;28;20376;-83
2022/02/09 10:46:07;;;;;;;16.15;9.18;;;;;;;8.68;89.96;102591.28;5073805;28;20247;-82
2022/02/09 10:48:38;;;;;;;14.25;9.35;;;;;;;8.68;89.97;102584.34;5095641;28;20346;-83
2022/02/09 10:51:41;;;;;;;12.10;8.98;;;;;;;8.71;90.02;102586.06;5089570;28;20035;-82
2022/02/09 10:54:14;;;;;;;9.60;8.52;;;;;;;8.70;89.83;102595.66;5102210;28;20099;-83
2022/02/09 10:56:44;;;;;;;16.98;10.32;;;;;;;8.70;89.79;102589.56;5102380;28;20242;-82
2022/02/09 10:59:11;;;;;;;12.00;9.30;;;;;;;8.70;89.89;102592.16;5081246;28;20115;-82
2022/02/09 11:01:38;;;;;;;12.85;9.60;;;;;;;8.69;89.73;102593.03;5078271;28;20028;-82
2022/02/09 11:04:05;;;;;;;15.35;9.93;;;;;;;8.70;89.56;102593.03;5096110;28;20036;-81
2022/02/09 11:06:36;;;;;;;15.30;9.85;;;;;;;8.71;89.53;102593.88;5078044;28;20310;-81
2022/02/09 11:09:07;;;;;;;14.68;9.52;;;;;;;8.69;89.69;102599.13;5090156;28;20060;-81
2022/02/09 11:11:37;;;;;;;20.67;9.45;;;;;;;8.68;89.62;102600.00;5093668;28;20078;-82
2022/02/09 11:14:03;;;;;;;15.77;8.55;;;;;;;8.67;89.39;102600.00;5091323;28;20106;-82
2022/02/09 11:16:30;;;;;;;11.75;8.27;;;;;;;8.70;89.63;102587.81;5065477;28;20376;-82
2022/02/09 11:18:57;;;;;;;23.70;8.32;;;;;;;8.69;89.22;102633.06;5092173;28;20043;-81
2022/02/09 11:21:33;;;;;;;16.65;8.57;;;;;;;8.67;88.66;102605.22;5096346;28;20251;-81
2022/02/09 11:24:06;;;;;;;9.88;8.02;;;;;;;8.67;89.23;102597.41;5093262;28;20399;-82
2022/02/09 11:34:49;;;;;;;14.93;8.90;;;;;;;8.68;89.22;102609.56;5093939;28;20027;-82
2022/02/09 11:37:23;;;;;;;17.52;9.60;;;;;;;8.71;89.11;102596.50;5090627;28;20449;-82
2022/02/09 11:39:51;;;;;;;16.73;8.95;;;;;;;8.70;89.29;102585.19;5075319;28;20036;-81
2022/02/09 11:42:48;;;;;;;17.50;8.93;;;;;;;8.72;89.28;102588.66;5089506;28;20411;-81
2022/02/09 12:00:12;;;;;;;11.05;7.07;;;;;;;8.72;88.95;102573.00;5092980;28;20096;-82
2022/02/09 12:14:05;;;;;;;14.25;8.80;;;;;;;8.72;88.98;102565.16;5087180;28;20024;-82
2022/02/09 12:16:48;;;;;;;12.10;7.63;;;;;;;8.71;89.08;102559.94;5083981;28;20338;-82
2022/02/09 12:22:18;;;;;;;13.50;6.95;;;;;;;8.69;88.87;102554.72;5069571;28;20043;-82
2022/02/09 12:24:44;;;;;;;8.93;6.30;;;;;;;8.68;88.95;102563.44;5090906;28;20226;-82
2022/02/09 12:27:12;;;;;;;7.80;6.30;;;;;;;8.68;89.08;102554.72;5068492;28;20036;-82
2022/02/09 12:29:57;;;;;;;18.90;6.67;;;;;;;8.67;89.15;102548.63;5094877;28;20040;-82
2022/02/09 12:32:26;;;;;;;11.75;6.63;;;;;;;8.67;89.27;102543.41;5092359;28;20201;-82
2022/02/09 12:35:00;;;;;;;9.50;6.47;;;;;;;8.69;89.15;102540.78;5094162;28;20078;-82
2022/02/09 12:37:32;;;;;;;12.05;7.78;;;;;;;8.70;89.03;102545.16;5094829;28;20043;-82
2022/02/09 12:40:00;;;;;;;21.17;6.82;;;;;;;8.72;89.49;102559.06;5094506;28;20035;-82
2022/02/09 12:42:35;;;;;;;10.05;6.78;;;;;;;8.73;89.01;102556.44;5063758;28;20031;-83
2022/02/09 12:45:13;;;;;;;9.40;7.07;;;;;;;8.74;89.38;102541.63;5100301;28;20050;-83
2022/02/09 12:47:54;;;;;;;21.15;6.82;;;;;;;8.77;89.31;102557.31;5101800;28;20071;-82
2022/02/09 12:50:27;;;;;;;17.55;7.32;;;;;;;8.78;89.03;102538.97;5090501;28;20158;-83
2022/02/09 12:52:54;;;;;;;16.13;6.68;;;;;;;8.79;88.70;102547.72;5082148;28;20027;-82
2022/02/09 12:55:25;;;;;;;10.55;6.30;;;;;;;8.80;88.97;102542.47;5079760;28;20043;-82
2022/02/09 12:57:55;;;;;;;11.73;6.40;;;;;;;8.80;88.89;102542.47;5095062;28;20157;-82
2022/02/09 13:00:33;;;;;;;10.95;7.15;;;;;;;8.80;88.89;102542.47;5083518;28;20054;-83
2022/02/09 13:03:02;;;;;;;15.93;6.72;;;;;;;8.81;89.17;102544.19;5106466;28;20050;-83
2022/02/09 13:05:30;;;;;;;13.18;6.38;;;;;;;8.81;89.13;102538.97;5083694;28;20023;-83
2022/02/09 13:07:58;;;;;;;13.60;7.03;;;;;;;8.82;88.84;102537.22;5100868;28;20261;-83
2022/02/09 13:10:25;;;;;;;17.15;6.93;;;;;;;8.82;89.01;102539.84;5103968;28;20119;-82
2022/02/09 13:12:50;;;;;;;10.98;6.35;;;;;;;8.83;89.07;102536.34;5098681;28;20047;-82
2022/02/09 13:15:22;;;;;;;11.35;7.00;;;;;;;8.83;88.64;102533.75;5091906;28;20044;-82
2022/02/09 13:17:59;;;;;;;10.45;6.45;;;;;;;8.82;88.88;102532.88;5093423;28;20047;-82
2022/02/09 14:03:13;;;;;;;9.35;6.30;;;;;;;8.82;89.40;102514.59;5099520;28;20036;-83
2022/02/09 14:56:16;;;;;;;9.93;5.43;;;;;;;8.64;91.06;102538.19;5084965;28;20040;-82
2022/02/09 14:58:46;;;;;;;11.40;6.18;;;;;;;8.60;91.31;102537.38;5097589;28;20039;-82
2022/02/09 15:01:19;;;;;;;10.43;5.43;;;;;;;8.58;91.89;102546.06;5096618;28;20043;-82
2022/02/09 15:11:59;;;;;;;7.07;6.18;;;;;;;8.43;93.60;102550.50;5080846;28;20048;-83
2022/02/09 15:14:48;;;;;;;13.55;6.43;;;;;;;8.43;93.84;102547.88;5096965;28;20036;-83
2022/02/09 15:22:31;;;;;;;10.65;6.70;;;;;;;8.33;94.52;102548.78;5095939;28;20048;-83
2022/02/09 15:24:57;;;;;;;12.32;6.80;;;;;;;8.33;94.70;102540.06;5077997;28;20044;-83
2022/02/09 15:27:22;;;;;;;11.75;7.00;;;;;;;8.34;94.39;102545.28;5072728;28;20263;-83
2022/02/09 15:29:49;;;;;;;11.68;6.55;;;;;;;8.34;94.73;102537.44;5089435;28;20042;-83
2022/02/09 15:34:59;;;;;;;13.25;6.78;;;;;;;8.29;95.11;102543.56;5095825;28;20347;-83
2022/02/09 15:38:11;;;;;;;16.73;7.20;;;;;;;8.28;95.30;102547.91;5062095;28;20044;-83
2022/02/09 15:40:30;;;;;;;16.27;7.20;;;;;;;8.27;95.45;102543.56;5072593;28;20040;-82
2022/02/09 15:56:35;;;;;;;17.23;7.60;;;;;;;8.24;95.60;102551.41;5098438;28;20089;-83
2022/02/09 16:09:33;;;;;;;17.42;7.93;;;;;;;8.14;96.29;102534.91;5086810;28;20043;-83
2022/02/09 16:23:01;;;;;;;16.25;7.93;;;;;;;8.13;96.42;102522.75;5094971;28;20093;-83
2022/02/09 16:34:49;;;;;;;13.10;6.50;;;;;;;8.17;96.01;102516.63;5093343;28;20142;-83
2022/02/09 16:44:55;;;;;;;12.05;6.47;;;;;;;8.22;95.63;102507.06;5077283;28;20042;-83
2022/02/09 16:50:08;;;;;;;15.98;6.53;;;;;;;8.23;95.54;102511.38;5093440;28;20036;-83
2022/02/09 16:52:46;;;;;;;13.55;6.60;;;;;;;8.24;95.42;102501.81;5077534;28;20055;-83
2022/02/09 17:19:49;;;;;;;14.80;6.25;;;;;;;8.33;94.77;102507.00;5076570;28;20074;-83
2022/02/09 17:22:14;;;;;;;8.38;4.95;;;;;;;8.35;94.69;102509.59;5086691;28;20233;-83
2022/02/09 17:24:40;;;;;;;6.60;4.50;;;;;;;8.35;94.57;102512.19;5080945;28;20039;-84
2022/02/09 17:27:08;;;;;;;8.30;4.90;;;;;;;8.36;94.31;102504.38;5096794;28;20339;-84
2022/02/09 17:53:50;;;;;;;8.77;5.40;;;;;;;8.45;93.64;102498.25;5085395;28;20075;-84
2022/02/09 17:56:22;;;;;;;10.77;5.70;;;;;;;8.46;93.67;102494.78;5075036;28;20048;-84
2022/02/09 17:58:50;;;;;;;10.75;5.88;;;;;;;8.48;93.42;102492.16;5079086;28;20355;-84
2022/02/09 18:01:18;;;;;;;7.45;5.35;;;;;;;8.47;93.40;102486.06;5087191;28;20043;-84
2022/02/09 18:03:44;;;;;;;9.57;5.70;;;;;;;8.49;93.37;102489.53;5085971;28;20039;-84
2022/02/09 18:06:29;;;;;;;8.52;5.55;;;;;;;8.49;93.22;102478.22;5093452;28;20290;-84
2022/02/09 18:25:19;;;;;;;7.75;4.78;;;;;;;8.51;93.00;102474.72;5100033;28;20130;-84
2022/02/09 18:28:55;;;;;;;9.10;4.95;;;;;;;8.50;93.11;102465.16;5077091;28;20384;-84
2022/02/09 18:43:34;;;;;;;8.02;4.75;;;;;;;8.45;93.36;102457.34;5097926;28;20153;-84
2022/02/09 18:46:13;;;;;;;9.35;4.63;;;;;;;8.45;93.49;102462.56;5097238;28;20067;-84
2022/02/09 19:04:42;;;;;;;10.27;5.75;;;;;;;8.42;93.68;102446.06;5072553;28;20430;-83
2022/02/09 19:20:58;;;;;;;13.55;6.57;;;;;;;8.41;93.92;102436.47;5076901;28;20335;-83
2022/02/09 19:26:45;;;;;;;12.55;6.40;;;;;;;8.39;93.94;102436.47;5097081;28;20081;-83
2022/02/09 19:29:43;;;;;;;9.77;5.70;;;;;;;8.40;93.83;102437.34;5083151;28;20553;-83
2022/02/09 19:32:27;;;;;;;14.35;6.38;;;;;;;8.39;94.13;102433.88;5096430;28;20067;-83
2022/02/09 19:48:07;;;;;;;12.33;6.43;;;;;;;8.27;94.94;102432.19;5080977;28;20051;-84
2022/02/09 19:55:54;;;;;;;9.40;6.18;;;;;;;8.28;95.00;102422.63;5090977;28;20044;-83
2022/02/09 19:58:21;;;;;;;7.85;5.60;;;;;;;8.29;94.98;102423.50;5091374;28;20065;-83
2022/02/09 20:00:48;;;;;;;9.43;6.57;;;;;;;8.30;94.67;102420.00;5097467;28;20094;-83
2022/02/09 20:03:13;;;;;;;6.57;4.88;;;;;;;8.33;94.85;102419.97;5098068;28;20032;-83
2022/02/09 20:05:39;;;;;;;6.32;4.93;;;;;;;8.34;94.75;102416.50;5075055;28;20096;-83
2022/02/09 20:08:06;;;;;;;6.50;4.72;;;;;;;8.32;94.59;102413.91;5095492;28;20044;-83
2022/02/09 20:10:33;;;;;;;4.47;4.07;;;;;;;8.34;94.43;102409.53;5063168;28;20031;-83
2022/02/09 20:12:58;;;;;;;7.03;4.20;;;;;;;8.35;94.45;102408.66;5097914;28;20028;-83
2022/02/09 20:15:25;;;;;;;8.90;3.78;;;;;;;8.33;94.40;102412.16;5079147;28;20085;-83
2022/02/09 20:17:52;;;;;;;4.63;3.35;;;;;;;8.33;94.40;102404.31;5092946;28;20099;-83
2022/02/09 20:20:24;;;;;;;5.55;3.78;;;;;;;8.34;94.50;102408.66;5096697;28;20071;-83
2022/02/09 20:22:51;;;;;;;5.35;3.33;;;;;;;8.34;94.55;102403.44;5080714;28;20343;-83
2022/02/09 20:25:18;;;;;;;5.07;3.53;;;;;;;8.35;94.53;102402.56;5072524;28;20038;-83
2022/02/09 20:27:44;;;;;;;9.60;3.67;;;;;;;8.36;94.51;102406.91;5065184;28;20059;-83
2022/02/09 20:30:11;;;;;;;7.32;4.70;;;;;;;8.35;94.58;102403.44;5078148;28;20048;-83
2022/02/09 20:32:43;;;;;;;14.13;7.07;;;;;;;8.35;94.28;102399.94;5094793;28;20044;-83
2022/02/09 20:35:11;;;;;;;5.00;4.50;;;;;;;8.34;94.34;102396.47;5096562;28;20074;-83
2022/02/09 20:37:42;;;;;;;8.50;4.87;;;;;;;8.36;94.35;102402.53;5094180;28;20040;-83
2022/02/09 20:40:18;;;;;;;8.10;5.47;;;;;;;8.37;94.43;102399.06;5092525;28;20301;-83
2022/02/09 20:42:59;;;;;;;6.70;5.78;;;;;;;8.39;94.30;102401.69;5090648;28;20348;-83
2022/02/09 20:45:39;;;;;;;5.68;5.18;;;;;;;8.40;94.39;102396.47;5088814;28;20346;-83
2022/02/09 20:48:07;;;;;;;7.38;5.63;;;;;;;8.41;93.92;102386.88;5094815;28;20110;-83
2022/02/09 20:50:35;;;;;;;18.73;9.10;;;;;;;8.40;93.92;102391.22;5078287;28;20040;-83
2022/02/09 20:53:01;;;;;;;8.00;6.88;;;;;;;8.40;94.15;102386.00;5094374;28;20027;-84
2022/02/09 20:55:27;;;;;;;10.68;6.75;;;;;;;8.41;94.23;102394.69;5096579;28;20311;-84
2022/02/09 20:57:54;;;;;;;8.18;6.13;;;;;;;8.41;94.28;102387.72;5083715;28;20231;-84
2022/02/09 21:03:07;;;;;;;12.90;7.22;;;;;;;8.42;93.89;102370.34;5090024;28;20040;-83
2022/02/09 21:13:10;;;;;;;8.10;5.70;;;;;;;8.44;93.74;102356.41;5087975;28;20036;-84
2022/02/09 21:15:51;;;;;;;11.05;6.78;;;;;;;8.42;93.74;102360.78;5093252;28;20253;-84
2022/02/09 21:26:31;;;;;;;9.93;6.95;;;;;;;8.38;93.91;102348.56;5097762;28;20067;-84
2022/02/09 21:54:23;;;;;;;16.90;10.43;;;;;;;8.37;93.78;102344.25;5090155;28;20052;-84
2022/02/09 21:56:52;;;;;;;15.52;9.70;;;;;;;8.36;93.86;102339.03;5082521;28;20048;-84
2022/02/09 22:20:23;;;;;;;15.10;9.82;;;;;;;8.37;93.31;102312.06;5093828;28;20465;-83
2022/02/09 22:28:02;;;;;;;17.63;11.43;;;;;;;8.32;93.46;102309.47;5096565;28;20047;-83
2022/02/09 22:54:50;;;;;;;11.18;8.18;;;;;;;8.32;93.01;102285.13;5082375;28;20077;-83
2022/02/09 22:57:16;;;;;;;14.73;9.48;;;;;;;8.31;93.18;102276.41;5075355;28;20052;-83
2022/02/09 22:59:50;;;;;;;16.33;9.27;;;;;;;8.29;92.81;102282.53;5095852;28;20047;-83
2022/02/09 23:02:30;;;;;;;11.93;8.40;;;;;;;8.29;92.89;102288.63;5089702;28;20357;-83
2022/02/09 23:07:34;;;;;;;20.25;10.95;;;;;;;8.24;92.64;102278.22;5088621;28;20062;-83
2022/02/09 23:10:19;;;;;;;14.68;9.85;;;;;;;8.24;92.35;102267.78;5097158;28;20095;-83
2022/02/09 23:12:52;;;;;;;9.93;7.82;;;;;;;8.23;92.57;102267.78;5073757;28;20047;-83
2022/02/09 23:15:31;;;;;;;14.90;10.57;;;;;;;8.21;92.34;102264.34;5068207;28;20043;-83
2022/02/09 23:26:36;;;;;;;11.57;8.55;;;;;;;8.24;92.71;102262.56;5091547;28;20043;-83
2022/02/09 23:52:42;;;;;;;9.82;8.25;;;;;;;8.23;92.69;102255.59;5086129;28;20055;-83
2022/02/09 23:56:38;;;;;;;21.30;14.07;;;;;;;8.07;92.13;102235.72;5078066;28;20073;-82
